createdAt,value
2017-11-08T06:34:28.465Z,7.00
2017-11-08T06:37:00.361Z,7.00
2017-11-08T06:39:32.996Z,7.00
2017-11-08T06:42:04.904Z,7.00
2017-11-08T06:44:37.550Z,7.00
2017-11-08T06:47:09.432Z,6.90
2017-11-08T06:49:42.073Z,7.00
2017-11-08T06:52:14.092Z,7.00
2017-11-08T06:54:46.724Z,7.00
2017-11-08T06:57:18.624Z,6.90
2017-11-08T06:59:51.278Z,7.00
2017-11-08T07:02:23.187Z,7.00
2017-11-08T07:04:55.055Z,7.00
2017-11-08T07:07:26.940Z,7.00
2017-11-08T07:09:58.924Z,7.00
2017-11-08T07:12:30.859Z,7.00
2017-11-08T07:15:02.728Z,7.10
2017-11-08T07:17:34.618Z,7.10
2017-11-08T07:20:07.248Z,7.10
2017-11-08T07:22:39.143Z,7.10
2017-11-08T07:25:11.022Z,7.10
2017-11-08T07:27:43.716Z,7.10
2017-11-08T07:30:15.592Z,7.10
2017-11-08T07:32:47.736Z,7.20
2017-11-08T07:35:19.615Z,7.20
2017-11-08T07:37:51.504Z,7.20
2017-11-08T07:40:23.377Z,7.20
2017-11-08T07:42:55.281Z,7.20
2017-11-08T07:45:27.237Z,7.20
2017-11-08T07:47:59.901Z,7.30
2017-11-08T07:50:32.536Z,7.30
2017-11-08T07:53:04.443Z,7.20
2017-11-08T07:55:37.083Z,7.30
2017-11-08T07:58:09.017Z,7.30
2017-11-08T08:00:40.889Z,7.30
2017-11-08T08:03:12.796Z,7.30
2017-11-08T08:05:45.448Z,7.30
2017-11-08T08:08:17.344Z,7.30
2017-11-08T08:10:49.995Z,7.40
2017-11-08T08:13:21.886Z,7.40
2017-11-08T08:15:54.552Z,7.40
2017-11-08T08:18:27.217Z,7.50
2017-11-08T08:20:59.101Z,7.40
2017-11-08T08:23:31.764Z,7.40
2017-11-08T08:26:04.408Z,7.40
2017-11-08T08:28:36.321Z,7.40
2017-11-08T08:31:08.963Z,7.40
2017-11-08T08:33:40.876Z,7.40
2017-11-08T08:36:12.743Z,7.40
2017-11-08T08:38:44.652Z,7.40
2017-11-08T08:41:16.532Z,7.50
2017-11-08T08:43:49.196Z,7.50
2017-11-08T08:46:21.076Z,7.50
2017-11-08T08:48:53.764Z,7.60
2017-11-08T08:51:25.645Z,7.60
2017-11-08T08:53:57.563Z,7.60
2017-11-08T08:56:30.209Z,7.50
2017-11-08T08:59:02.133Z,7.50
2017-11-08T09:01:34.030Z,7.50
2017-11-08T09:04:05.954Z,7.50
2017-11-08T09:06:37.851Z,7.50
2017-11-08T09:09:09.748Z,7.60
2017-11-08T09:11:42.393Z,7.60
2017-11-08T09:14:14.286Z,7.60
2017-11-08T09:16:46.935Z,7.60
2017-11-08T09:19:18.843Z,7.60
2017-11-08T09:21:50.729Z,7.60
2017-11-08T09:24:22.638Z,7.50
2017-11-08T09:26:54.508Z,7.50
2017-11-08T09:29:27.176Z,7.60
2017-11-08T09:31:59.049Z,7.60
2017-11-08T09:34:31.704Z,7.50
2017-11-08T09:37:03.581Z,7.50
2017-11-08T09:39:36.265Z,7.50
2017-11-08T09:42:08.937Z,7.50
2017-11-08T09:44:41.592Z,7.60
2017-11-08T09:47:13.477Z,7.60
2017-11-08T09:49:46.164Z,7.70
2017-11-08T09:52:18.813Z,7.80
2017-11-08T09:54:50.724Z,7.80
2017-11-08T09:57:22.601Z,7.80
2017-11-08T09:59:54.500Z,7.80
2017-11-08T10:02:26.388Z,7.80
2017-11-08T10:04:59.040Z,7.90
2017-11-08T10:07:30.936Z,7.80
2017-11-08T10:10:02.865Z,7.90
2017-11-08T10:12:34.753Z,8.00
2017-11-08T10:15:07.403Z,8.10
2017-11-08T10:17:39.300Z,8.10
2017-11-08T10:20:11.233Z,8.10
2017-11-08T10:22:43.873Z,8.20
2017-11-08T10:25:15.799Z,8.20
2017-11-08T10:27:47.669Z,8.20
2017-11-08T10:30:19.568Z,8.10
2017-11-08T10:32:51.448Z,8.00
2017-11-08T10:35:23.370Z,8.10
2017-11-08T10:37:55.252Z,8.00
2017-11-08T10:40:27.255Z,7.90
2017-11-08T10:42:59.896Z,7.80
2017-11-08T10:45:31.757Z,7.80
2017-11-08T10:48:03.646Z,7.80
2017-11-08T10:50:35.548Z,7.70
2017-11-08T10:53:07.421Z,7.70
2017-11-08T10:55:40.137Z,7.80
2017-11-08T10:58:12.007Z,7.70
2017-11-08T11:00:43.942Z,7.80
2017-11-08T11:03:15.823Z,7.80
2017-11-08T11:05:47.734Z,7.80
2017-11-08T11:08:19.610Z,7.90
2017-11-08T11:10:52.285Z,8.00
2017-11-08T11:13:24.940Z,8.00
2017-11-08T11:15:56.848Z,8.00
2017-11-08T11:18:28.725Z,8.10
2017-11-08T11:21:00.666Z,8.00
2017-11-08T11:23:32.546Z,8.00
2017-11-08T11:26:04.449Z,8.00
2017-11-08T11:28:36.324Z,8.00
2017-11-08T11:31:09.009Z,8.00
2017-11-08T11:33:41.665Z,8.00
2017-11-08T11:36:13.874Z,8.00
2017-11-08T11:38:45.758Z,8.00
2017-11-08T11:41:17.679Z,8.10
2017-11-08T11:43:50.333Z,8.00
2017-11-08T11:46:22.241Z,7.90
2017-11-08T11:48:54.108Z,7.90
2017-11-08T11:51:26.025Z,8.00
2017-11-08T11:53:57.904Z,8.00
2017-11-08T11:56:30.570Z,8.00
2017-11-08T11:59:02.455Z,8.00
2017-11-08T12:01:35.162Z,7.90
2017-11-08T12:04:07.049Z,7.90
2017-11-08T12:06:39.475Z,8.00
2017-11-08T12:09:11.376Z,8.00
2017-11-08T12:11:43.291Z,8.00
2017-11-08T12:14:15.952Z,8.10
2017-11-08T12:16:49.479Z,8.10
2017-11-08T12:19:21.365Z,8.10
2017-11-08T12:21:53.267Z,8.20
2017-11-08T12:24:25.150Z,8.20
2017-11-08T12:26:57.832Z,8.30
2017-11-08T12:29:29.727Z,8.30
2017-11-08T12:32:01.638Z,8.30
2017-11-08T12:34:35.113Z,8.30
2017-11-08T12:37:07.017Z,8.30
2017-11-08T12:39:38.910Z,8.30
2017-11-08T12:42:10.806Z,8.30
2017-11-08T12:44:42.731Z,8.40
2017-11-08T12:47:14.629Z,8.40
2017-11-08T12:49:46.507Z,8.40
2017-11-08T12:52:19.177Z,8.40
2017-11-08T12:54:52.087Z,8.40
2017-11-08T12:57:23.998Z,8.40
2017-11-08T12:59:55.883Z,8.40
2017-11-08T13:02:28.561Z,8.30
2017-11-08T13:05:01.208Z,8.30
2017-11-08T13:07:33.130Z,8.30
2017-11-08T13:10:05.059Z,8.40
2017-11-08T13:12:36.962Z,8.40
2017-11-08T13:15:08.845Z,8.40
2017-11-08T13:17:40.745Z,8.40
2017-11-08T13:20:13.405Z,8.50
2017-11-08T13:22:45.309Z,8.50
2017-11-08T13:25:17.201Z,8.40
2017-11-08T13:27:49.110Z,8.40
2017-11-08T13:30:21.773Z,8.50
2017-11-08T13:32:53.662Z,8.50
2017-11-08T13:35:26.315Z,8.50
2017-11-08T13:37:58.221Z,8.50
2017-11-08T13:40:30.105Z,8.50
2017-11-08T13:43:02.016Z,8.50
2017-11-08T13:45:34.665Z,8.50
2017-11-08T13:48:06.578Z,8.50
2017-11-08T13:50:38.457Z,8.50
2017-11-08T13:53:10.384Z,8.50
2017-11-08T13:55:42.262Z,8.50
2017-11-08T13:58:14.169Z,8.50
2017-11-08T14:00:46.084Z,8.50
2017-11-08T14:03:17.982Z,8.50
2017-11-08T14:05:50.632Z,8.60
2017-11-08T14:08:22.545Z,8.60
2017-11-08T14:10:54.452Z,8.60
2017-11-08T14:13:26.468Z,8.60
2017-11-08T14:15:59.137Z,8.60
2017-11-08T14:18:32.796Z,8.60
2017-11-08T14:21:04.674Z,8.60
2017-11-08T14:23:36.582Z,8.60
2017-11-08T14:26:09.238Z,8.60
2017-11-08T14:28:42.061Z,8.60
2017-11-08T14:31:13.950Z,8.60
2017-11-08T14:33:45.870Z,8.50
2017-11-08T14:36:18.518Z,8.50
2017-11-08T14:38:50.523Z,8.50
2017-11-08T14:41:22.402Z,8.50
2017-11-08T14:43:54.330Z,8.60
2017-11-08T14:46:26.973Z,8.50
2017-11-08T14:48:58.884Z,8.50
2017-11-08T14:51:30.762Z,8.50
2017-11-08T14:54:02.689Z,8.40
2017-11-08T14:56:34.584Z,8.40
2017-11-08T14:59:06.493Z,8.40
2017-11-08T15:01:38.370Z,8.50
2017-11-08T15:04:11.039Z,8.50
2017-11-08T15:06:43.949Z,8.50
2017-11-08T15:09:15.860Z,8.50
2017-11-08T15:11:47.740Z,8.50
2017-11-08T15:14:19.639Z,8.50
2017-11-08T15:16:51.531Z,8.50
2017-11-08T15:19:23.437Z,8.50
2017-11-08T15:21:56.089Z,8.50
2017-11-08T15:24:28.022Z,8.50
2017-11-08T15:26:59.929Z,8.50
2017-11-08T15:29:32.617Z,8.50
2017-11-08T15:32:05.259Z,8.50
2017-11-08T15:34:37.178Z,8.50
2017-11-08T15:37:09.057Z,8.60
2017-11-08T15:39:41.021Z,8.60
2017-11-08T15:42:12.898Z,8.60
2017-11-08T15:44:44.808Z,8.60
2017-11-08T15:47:17.469Z,8.60
2017-11-08T15:49:50.134Z,8.60
2017-11-08T15:52:22.036Z,8.60
2017-11-08T15:54:54.005Z,8.50
2017-11-08T15:57:25.929Z,8.60
2017-11-08T15:59:58.639Z,8.50
2017-11-08T16:02:30.516Z,8.50
2017-11-08T16:05:02.433Z,8.50
2017-11-08T16:07:35.085Z,8.50
2017-11-08T16:10:06.990Z,8.50
2017-11-08T16:12:38.873Z,8.50
2017-11-08T16:15:10.807Z,8.50
2017-11-08T16:17:43.462Z,8.50
2017-11-08T16:20:15.377Z,8.50
2017-11-08T16:22:47.258Z,8.50
2017-11-08T16:25:19.172Z,8.50
2017-11-08T16:27:51.049Z,8.50
2017-11-08T16:30:22.957Z,8.50
2017-11-08T16:32:54.831Z,8.50
2017-11-08T16:35:27.509Z,8.50
2017-11-08T16:38:00.177Z,8.50
2017-11-08T16:40:32.300Z,8.50
2017-11-08T16:43:04.190Z,8.50
2017-11-08T16:45:36.873Z,8.50
2017-11-08T16:48:08.754Z,8.50
2017-11-08T16:50:41.437Z,8.50
2017-11-08T16:53:14.092Z,8.50
2017-11-08T16:55:46.005Z,8.40
2017-11-08T16:58:17.886Z,8.40
2017-11-08T17:00:49.796Z,8.40
2017-11-08T17:03:21.673Z,8.40
2017-11-08T17:05:54.360Z,8.40
2017-11-08T17:08:26.258Z,8.40
2017-11-08T17:10:58.150Z,8.40
2017-11-08T17:13:30.037Z,8.40
2017-11-08T17:16:01.925Z,8.40
2017-11-08T17:18:33.806Z,8.40
2017-11-08T17:21:05.778Z,8.40
2017-11-08T17:23:37.669Z,8.40
2017-11-08T17:26:10.367Z,8.40
2017-11-08T17:28:42.242Z,8.40
2017-11-08T17:31:15.954Z,8.40
2017-11-08T17:33:47.849Z,8.40
2017-11-08T17:36:19.752Z,8.40
2017-11-08T17:38:51.637Z,8.40
2017-11-08T17:41:23.550Z,8.40
2017-11-08T17:43:55.433Z,8.40
2017-11-08T17:46:27.356Z,8.40
2017-11-08T17:48:59.229Z,8.40
2017-11-08T17:51:34.001Z,8.30
2017-11-08T17:54:05.873Z,8.30
2017-11-08T17:56:37.761Z,8.40
2017-11-08T17:59:09.695Z,8.30
2017-11-08T18:01:41.637Z,8.30
2017-11-08T18:04:13.537Z,8.30
2017-11-08T18:06:45.465Z,8.30
2017-11-08T18:09:17.408Z,8.30
2017-11-08T18:11:49.311Z,8.30
2017-11-08T18:14:21.192Z,8.30
2017-11-08T18:16:53.105Z,8.30
2017-11-08T18:19:24.986Z,8.30
2017-11-08T18:21:57.000Z,8.30
2017-11-08T18:24:29.635Z,8.30
2017-11-08T18:27:01.969Z,8.30
2017-11-08T18:29:33.865Z,8.30
2017-11-08T18:32:05.753Z,8.30
2017-11-08T18:34:38.399Z,8.30
2017-11-08T18:37:10.310Z,8.30
2017-11-08T18:39:42.195Z,8.30
2017-11-08T18:42:14.097Z,8.30
2017-11-08T18:44:45.974Z,8.30
2017-11-08T18:47:18.678Z,8.30
2017-11-08T18:49:50.627Z,8.30
2017-11-08T18:52:23.293Z,8.30
2017-11-08T18:54:55.989Z,8.40
2017-11-08T18:57:27.925Z,8.30
2017-11-08T18:59:59.807Z,8.40
2017-11-08T19:02:31.774Z,8.40
2017-11-08T19:05:03.674Z,8.40
2017-11-08T19:07:35.606Z,8.40
2017-11-08T19:10:07.481Z,8.40
2017-11-08T19:12:39.369Z,8.40
2017-11-08T19:15:11.281Z,8.40
2017-11-08T19:17:43.334Z,8.40
2017-11-08T19:20:15.245Z,8.40
2017-11-08T19:22:47.176Z,8.40
2017-11-08T19:25:19.194Z,8.50
2017-11-08T19:27:51.893Z,8.50
2017-11-08T19:30:24.534Z,8.50
2017-11-08T19:32:56.445Z,8.50
2017-11-08T19:35:28.512Z,8.50
2017-11-08T19:38:00.413Z,8.50
2017-11-08T19:40:32.310Z,8.50
2017-11-08T19:43:04.978Z,8.50
2017-11-08T19:45:36.854Z,8.50
2017-11-08T19:48:09.617Z,8.50
2017-11-08T19:50:41.502Z,8.50
2017-11-08T19:53:13.402Z,8.50
2017-11-08T19:55:45.274Z,8.50
2017-11-08T19:58:17.265Z,8.50
2017-11-08T20:00:49.952Z,8.50
2017-11-08T20:03:22.633Z,8.50
2017-11-08T20:05:55.268Z,8.50
2017-11-08T20:08:27.189Z,8.50
2017-11-08T20:10:59.188Z,8.50
2017-11-08T20:13:31.085Z,8.50
2017-11-08T20:16:03.737Z,8.50
2017-11-08T20:18:35.645Z,8.50
2017-11-08T20:21:08.395Z,8.50
2017-11-08T20:23:41.081Z,8.50
2017-11-08T20:26:12.969Z,8.50
2017-11-08T20:28:44.872Z,8.50
2017-11-08T20:31:17.562Z,8.50
2017-11-08T20:33:49.596Z,8.50
2017-11-08T20:36:21.471Z,8.50
2017-11-08T20:38:53.356Z,8.50
2017-11-08T20:41:25.228Z,8.50
2017-11-08T20:43:57.151Z,8.50
2017-11-08T20:46:29.055Z,8.50
2017-11-08T20:49:01.735Z,8.50
2017-11-08T20:51:34.378Z,8.50
2017-11-08T20:54:06.274Z,8.60
2017-11-08T20:56:38.929Z,8.60
